Ouarzazate, Morocco
Current Conditions -  °F | °C
As of 5:00 AM on Thursday 29 Jan 2015 (Local Time) from GMMZ Reporting Station
Clear Clear  
Wind Chill: 39°   Ceiling: Unl
Heat Index: 39°   Visibility: 6mi
Dew Point: 21°   Wind: 1mph
Humidity: 49%   Direction: NA
Pressure: 30.21"   Gusts: NA
Location:  30.92°N, 6.9°W
Report Text: GMMZ 290400Z VRB01KT CAVOK 04/M06 Q1023 NOSIG
Loading
Personal Weather Stations






























Interactive Weather Map New forecast layout! Learn more

10-Day Weather Forecast

Advertisements
Track Severe Weather on mobile